Ann Arbor, MI (48109)

9:56 AM EST on January 31, 2015 (GMT -0500)
Leslie Park Golf Course | Change Station
CLOSE
Current Station
Personal Weather Station
Location: Ann Arbor, MI
Elevation: 906 ft
Nearby Weather Stations
Active Advisory: Winter Storm Watch

Elev 906 ft 42.31 °N, 83.72 °W | Updated 8 seconds ago

Partly Cloudy
Partly Cloudy
23.9 °F
Feels Like 24 °F
N
2.0
Wind Variable Wind from South
Gusts 2.0 mph

Today
High -- | Low -- °F
--% Chance of Precip.
Yesterday
High -- | Low -- °F
Precip. -- in
7:49 AM 5:47 PM
Waxing Gibbous, 90% visible
Pressure 30.27 in
Visibility 9.0 miles
Clouds Scattered Clouds 2300 ft
Windchill 24 °F
Dew Point 19 °F
Humidity 81%
Rainfall 0.00 in
Snow Depth Not available.
UV 1 out of 12
Pollen .10 out of 12
Air Quality Not available.
Flu Activity Not available.
SPECI KARB 311414Z 20004KT 9SM SCT023 M08/M10 A3027 RMK AO2 T10781100

More Conditions Fewer Conditions

Pressure 30.27 in
Visibility 9.0 miles
Clouds Scattered Clouds 2300 ft
Windchill 24 °F
Dew Point 19 °F
Humidity 81%
Rainfall 0.00 in
Snow Depth Not available.
UV 1 out of 12
Pollen .10 out of 12
Air Quality Not available.
Flu Activity Not available.
SPECI KARB 311414Z 20004KT 9SM SCT023 M08/M10 A3027 RMK AO2 T10781100

More Conditions Fewer Conditions

10-Day Weather Forecast

Almanac

Astronomy

Jan. 31, 2015 Rise Set
Actual Time
Civil Twilight
Nautical Twilight
Astronomical Twilight
Moon
Length of Visible Light
Length of Day
Tomorrow will be .
, % of the Moon is Illuminated

Today's Extremes

State Highs State Lows

Community

WunderPhotos

Upload Photos

1,792,064 photos uploaded!

WunderBlogs® & News

Nearby

Air Quality

  Air Quality AQ Index Pollutant
Not available.

Snow Depth

Station Depth Elevation

Earthquake Activity

City Distance Mag. Time & Date
Minimum magnitude displayed is 2.5.

Coastal Water Temperatures

Place Temperature

Nearby Weather Stations